Etusivu
METAR-TAF:

METAR-TAF

Lentoasemat :

Greenwood, Mississippi, Yhdysvallat

Leveyspiiri: 33-29-33N, Pituuspiiri: 090-05-01W, korkeus merenpinnasta: 47 m

Tämänhetkinen sää

Tämä raportti tehtiin 39 minuuttia sitten, kello 15.53 UTC
tyyntä
Lämpötila 9°C
Kosteus 71%
Ilmanpaine 1015 hPa
Näkyvyys: 16.1 km
selkeää

METAR: KGWO 181553Z AUTO 00000KT 10SM CLR 09/04 A2997 RMK AO2 SLP147 T00940039

Aika: 10:32 (16:32 UTC)

Sääennuste

Tämä raportti tehtiin 5 tuntia ja 11 minuuttia sitten, kello 11.21 UTC
Ennuste voimassa 18. päivästä klo 12 UTC - 19. päivään klo 12 UTC
Tuuli 5 kn lännestä/luoteesta
Näkyvyys: 10 km
Hajonneita pilviä 25000 ft:n korkeudessa

TAF: KGWO 181121Z 1812/1912 30005KT P6SM BKN250

Säähavainnot ja -ennusteet yli 4000 lentoasemalta (METAR- ja TAF-raportit).

Käytössä olevat sääasemat on merkitty karttaan keltaisilla ja punaisilla pisteillä.

Aseta hiiri pisteen päälle nähdäksesi sääaseman nimen.

Klikkaa sitten nähdäksesi säähavainnot ja -ennusteet.

Kartan vaihtaminen: klikkaa mustalla rastilla varustettuja vihreitä pisteitä, niin voit zoomata sisään; viivalla varustettua vihreää pistettä, niin voit zoomata ulos tai vihreitä nuolia, niin pääset viereisille kartoille.


METAR-TAF: